• Join FlightAware (Why Join?)
  • Login
  • US Flag 
04:24AM EST


 

Airport Tracker/Info


-or-


 

Live Flight TrackerFlight Track Log ✈ WAV324 ✈ 31-Mar-2013 ✈ PAFA / FAI - PFYU

Flight Track Log - Related Links

Times and Time Zones

All times are in EDT time to prevent confusion due to time zone crossing. See the WAV324 flight status page for this flight to view local times or setup timezone preferences in your user account.

Time Position Orientation Groundspeed Altitude Reporting Facility
EDT Latitude Longitude Course Direction KTS MPH feet Rate Location/Type
06:55PM 64.7500 -148.1333 16° North 160 184 4,700  Level Anchorage Center
06:56PM 64.7833 -148.0833 33° Northeast 160 184 5,300 660 Climbing Anchorage Center
06:57PM 65.0669 -147.8164 23° Northeast  Level FlightAware Approximate
06:57PM 64.8167 -148.0333 33° Northeast 160 184 6,100  Level Anchorage Center
06:58PM 65.1092 -147.7871 12° North  Level FlightAware Approximate
06:58PM 64.8667 -147.9833 23° Northeast 160 184 6,700  Level Anchorage Center
06:59PM 65.1518 -147.7587 16° North  Level FlightAware Approximate
06:59PM 64.9000 -147.9333 32° Northeast 160 184 7,400  Level Anchorage Center
07:00PM 65.1942 -147.7288 16° North  Level FlightAware Approximate
07:00PM 64.9500 -147.9000 16° North 160 184 8,000  Level Anchorage Center
07:01PM 65.2366 -147.6989 16° North  Level FlightAware Approximate
07:01PM 64.9833 -147.8667 23° Northeast 180 207 8,000  Level Anchorage Center
07:02PM 65.0333 -147.8333 16° North 180 207 8,000  Level Anchorage Center
07:03PM 65.0833 -147.8000 16° North 180 207 8,000  Level Anchorage Center
07:04PM 65.1333 -147.7667 16° North 170 196 8,000  Level Anchorage Center
07:05PM 65.1833 -147.7333 16° North 170 196 8,000  Level Anchorage Center
07:06PM 65.2333 -147.7000 16° North 170 196 8,000  Level Anchorage Center
07:07PM 65.2667 -147.6833 12° North 170 196 8,000  Level Anchorage Center
07:08PM 65.3167 -147.6500 16° North 180 207 8,000  Level Anchorage Center
07:09PM 65.3667 -147.6167 16° North 180 207 8,000  Level Anchorage Center
07:10PM 65.4167 -147.5833 15° North 170 196 8,000  Level Anchorage Center
07:11PM 65.4667 -147.5500 15° North 180 207 8,000  Level Anchorage Center
07:12PM 65.5167 -147.5167 15° North 180 207 8,000  Level Anchorage Center
07:13PM 65.5667 -147.4833 15° North 180 207 8,000  Level Anchorage Center
07:14PM 65.6000 -147.4500 22° Northeast 180 207 8,000  Level Anchorage Center
07:16PM 65.6575 -147.4051 18° North  Level FlightAware Approximate
07:23PM 65.9192 -147.0445 46° Northeast  Level FlightAware Approximate
07:24PM 65.9496 -146.9655 47° Northeast  Level FlightAware Approximate
07:25PM 65.9798 -146.8863 47° Northeast  Level FlightAware Approximate
07:26PM 66.0101 -146.8069 47° Northeast  Level FlightAware Approximate
07:27PM 66.0403 -146.7274 47° Northeast  Level FlightAware Approximate
07:28PM 66.0704 -146.6476 47° Northeast  Level FlightAware Approximate
07:29PM 66.1006 -146.5677 47° Northeast  Level FlightAware Approximate
07:30PM 66.1306 -146.4876 47° Northeast  Level FlightAware Approximate
07:31PM 66.1607 -146.4073 47° Northeast  Level FlightAware Approximate
07:32PM 66.1907 -146.3268 47° Northeast  Level FlightAware Approximate
07:33PM 66.2206 -146.2461 47° Northeast  Level FlightAware Approximate
07:34PM 66.2505 -146.1650 55° Northeast  Level FlightAware Approximate
07:35PM 66.2761 -146.0754 55° Northeast  Level FlightAware Approximate
07:36PM 66.3044 -145.9911 48° Northeast  Level FlightAware Approximate
07:37PM 66.3338 -145.9088 48° Northeast  Level FlightAware Approximate
07:38PM 66.3632 -145.8264 48° Northeast  Level FlightAware Approximate
07:39PM 66.3928 -145.7442 48° Northeast  Level FlightAware Approximate
07:40PM 66.4223 -145.6620 48° Northeast  Level FlightAware Approximate
07:41PM 66.4518 -145.5795 48° Northeast  Level FlightAware Approximate
07:42PM 66.4813 -145.4968 48° Northeast  Level FlightAware Approximate
07:43PM 66.5107 -145.4140 48° Northeast  Level FlightAware Approximate
07:44PM 66.5393 -145.3293 54° Northeast  Level FlightAware Approximate
07:45PM 66.5651 -145.2390 54° Northeast  Level FlightAware Approximate
07:46PM 66.5667 -145.2333 54° Northeast  Level FlightAware Approximate
07:47PM 66.5724 -145.2463 54° Northeast  Level Estimated
07:48PM 66.5724 -145.2463 54° Northeast  Level Estimated
07:49PM 66.5724 -145.2463 54° Northeast  Level Estimated
07:50PM 66.5724 -145.2463 54° Northeast  Level Estimated
07:51PM 66.5724 -145.2463 54° Northeast  Level Estimated
07:52PM 66.5724 -145.2463 54° Northeast  Level Estimated
07:53PM 66.5724 -145.2463 54° Northeast  Level Estimated
07:54PM 66.5724 -145.2463 54° Northeast  Level Estimated